Time;durP1;ratioP1;P1;durP2;ratioP2;P2;SDS_P1;SDS_P2;PMS_P1;PMS_P2;Temp;Humidity;BMP_temperature;BMP_pressure;BME280_temperature;BME280_humidity;BME280_pressure;Samples;Min_cycle;Max_cycle;Signal;HPM_P1;HPM_P2
2023/05/13 00:00:58;;;;;;;4.55;3.38;;;;;;;-140.66;100.00;55571.53;5082364;28;20102;-77
2023/05/13 00:03:44;;;;;;;5.32;3.40;;;;;;;-140.66;100.00;55571.53;5082328;28;20020;-77
2023/05/13 00:06:31;;;;;;;4.05;3.13;;;;;;;-140.66;100.00;55571.53;5082380;28;20112;-77
2023/05/13 00:09:16;;;;;;;5.43;3.42;;;;;;;-140.66;100.00;55571.53;5082385;28;20035;-75
2023/05/13 00:12:02;;;;;;;6.30;3.75;;;;;;;-140.66;100.00;55571.53;5097390;28;20376;-76
2023/05/13 00:14:48;;;;;;;9.65;3.80;;;;;;;-140.66;100.00;55571.53;5097139;28;20100;-77
2023/05/13 00:17:34;;;;;;;5.95;3.40;;;;;;;-140.66;100.00;55571.53;5081501;28;20024;-76
2023/05/13 00:20:19;;;;;;;7.07;3.78;;;;;;;-140.66;100.00;55571.53;5096778;28;20103;-75
2023/05/13 00:23:06;;;;;;;34.95;5.50;;;;;;;-140.66;100.00;55571.53;5082092;28;20367;-76
2023/05/13 00:25:52;;;;;;;7.10;3.40;;;;;;;-140.66;100.00;55571.53;5081977;28;20028;-76
2023/05/13 00:28:38;;;;;;;9.50;3.58;;;;;;;-140.66;100.00;55571.53;5109698;28;20373;-79
2023/05/13 00:31:23;;;;;;;6.72;3.50;;;;;;;-140.66;100.00;55571.53;5117138;28;20088;-77
2023/05/13 00:34:09;;;;;;;6.78;3.53;;;;;;;-140.66;100.00;55571.53;5119069;28;20023;-77
2023/05/13 00:36:55;;;;;;;7.72;3.33;;;;;;;-140.66;100.00;55571.53;5116456;28;20027;-78
2023/05/13 00:39:41;;;;;;;6.40;3.50;;;;;;;-140.66;100.00;55571.53;5116050;28;20035;-77
2023/05/13 00:42:27;;;;;;;5.68;3.55;;;;;;;-140.66;100.00;55571.53;5102100;28;20071;-78
2023/05/13 00:45:13;;;;;;;5.57;3.38;;;;;;;-140.66;100.00;55571.53;5101849;28;20034;-77
2023/05/13 00:47:59;;;;;;;5.55;3.30;;;;;;;-140.66;100.00;55571.53;5116431;28;20019;-77
2023/05/13 00:50:45;;;;;;;7.07;3.70;;;;;;;-140.66;100.00;55571.53;5116192;28;20354;-77
2023/05/13 00:53:32;;;;;;;6.47;3.38;;;;;;;-140.66;100.00;55571.53;5116500;28;20034;-77
2023/05/13 00:56:20;;;;;;;7.05;3.78;;;;;;;-140.66;100.00;55571.53;5116004;28;20055;-77
2023/05/13 00:59:06;;;;;;;10.25;3.50;;;;;;;-140.66;100.00;55571.53;5115834;28;20032;-77
2023/05/13 01:02:15;;;;;;;13.10;3.70;;;;;;;-140.66;100.00;55571.53;5101392;28;20118;-77
2023/05/13 01:05:26;;;;;;;12.68;4.25;;;;;;;-140.66;100.00;55571.53;5101612;28;20024;-77
2023/05/13 01:08:19;;;;;;;7.80;3.78;;;;;;;-140.66;100.00;55571.53;5101508;28;20039;-77
2023/05/13 01:11:12;;;;;;;6.20;3.67;;;;;;;-140.66;100.00;55571.53;5115867;28;20363;-78
2023/05/13 01:14:02;;;;;;;4.93;3.70;;;;;;;-140.66;100.00;55571.53;5115617;28;20096;-76
2023/05/13 01:16:54;;;;;;;5.30;4.10;;;;;;;-140.66;100.00;55571.53;5101434;28;20042;-77
2023/05/13 01:19:45;;;;;;;5.90;3.60;;;;;;;-140.66;100.00;55571.53;5115324;28;20216;-78
2023/05/13 01:22:31;;;;;;;5.75;3.85;;;;;;;-140.66;100.00;55571.53;5115530;28;20023;-78
2023/05/13 01:25:17;;;;;;;4.72;4.05;;;;;;;-140.66;100.00;55571.53;5116003;28;20066;-78
2023/05/13 01:28:03;;;;;;;6.20;4.18;;;;;;;-140.66;100.00;55571.53;5092107;28;20382;-77
2023/05/13 01:30:49;;;;;;;5.80;4.30;;;;;;;-140.66;100.00;55571.53;5093798;28;20344;-77
2023/05/13 01:33:35;;;;;;;10.20;4.80;;;;;;;-140.66;100.00;55571.53;5092477;28;20023;-78
2023/05/13 01:36:21;;;;;;;10.70;4.47;;;;;;;-140.66;100.00;55571.53;5094989;28;20032;-78
2023/05/13 01:39:07;;;;;;;5.30;3.92;;;;;;;-140.66;100.00;55571.53;5113513;28;20439;-80
2023/05/13 01:41:53;;;;;;;7.05;4.32;;;;;;;-140.66;100.00;55571.53;5100173;28;20440;-77
2023/05/13 01:44:39;;;;;;;8.55;4.10;;;;;;;-140.66;100.00;55571.53;5101657;28;20127;-76
2023/05/13 01:47:25;;;;;;;6.32;4.80;;;;;;;-140.66;100.00;55571.53;5128894;28;20034;-77
2023/05/13 01:50:10;;;;;;;8.10;4.35;;;;;;;-140.66;100.00;55571.53;5116300;28;20039;-76
2023/05/13 01:52:56;;;;;;;9.90;4.75;;;;;;;-140.66;100.00;55571.53;5102012;28;20494;-76
2023/05/13 01:55:42;;;;;;;9.05;4.22;;;;;;;-140.66;100.00;55571.53;5128586;28;20062;-76
2023/05/13 01:58:27;;;;;;;6.60;4.75;;;;;;;-140.66;100.00;55571.53;5128031;28;20030;-77
2023/05/13 02:01:13;;;;;;;7.28;4.88;;;;;;;-140.66;100.00;55571.53;5099484;28;20444;-77
2023/05/13 02:03:59;;;;;;;11.65;5.43;;;;;;;-140.66;100.00;55571.53;5115208;28;20031;-77
2023/05/13 02:06:45;;;;;;;9.05;4.93;;;;;;;-140.66;100.00;55571.53;5100717;28;20427;-77
2023/05/13 02:09:31;;;;;;;8.70;5.03;;;;;;;-140.66;100.00;55571.53;5100907;28;20031;-76
2023/05/13 02:12:16;;;;;;;10.85;5.40;;;;;;;-140.66;100.00;55571.53;5100661;28;20054;-78
2023/05/13 02:15:02;;;;;;;7.22;5.15;;;;;;;-140.66;100.00;55571.53;5127865;28;20528;-77
2023/05/13 02:17:48;;;;;;;6.13;4.50;;;;;;;-140.66;100.00;55571.53;5099587;28;20031;-77
2023/05/13 02:20:34;;;;;;;10.23;4.63;;;;;;;-140.66;100.00;55571.53;5127447;28;20019;-75
2023/05/13 02:23:20;;;;;;;11.63;4.50;;;;;;;-140.66;100.00;55571.53;5115148;28;20028;-76
2023/05/13 02:26:05;;;;;;;6.63;4.53;;;;;;;-140.66;100.00;55571.53;5099995;28;20027;-77
2023/05/13 02:28:51;;;;;;;8.52;4.53;;;;;;;-140.66;100.00;55571.53;5045372;28;1133863;-77
2023/05/13 02:31:37;;;;;;;9.15;4.65;;;;;;;-140.66;100.00;55571.53;5093786;28;20334;-76
2023/05/13 02:34:23;;;;;;;9.68;4.85;;;;;;;-140.66;100.00;55571.53;5107922;28;20024;-76
2023/05/13 02:37:08;;;;;;;7.10;4.22;;;;;;;-140.66;100.00;55571.53;5094301;28;20016;-76
2023/05/13 02:39:54;;;;;;;7.03;4.45;;;;;;;-140.66;100.00;55571.53;5067148;28;20028;-76
2023/05/13 02:42:42;;;;;;;5.25;3.85;;;;;;;-140.66;100.00;55571.53;5057392;28;20071;-77
2023/05/13 02:45:27;;;;;;;5.03;4.07;;;;;;;-140.66;100.00;55571.53;5055113;28;20351;-77
2023/05/13 02:48:13;;;;;;;7.90;4.65;;;;;;;-140.66;100.00;55571.53;5056222;28;20033;-75
2023/05/13 02:50:59;;;;;;;5.70;4.10;;;;;;;-140.66;100.00;55571.53;5076979;28;20040;-75
2023/05/13 02:53:45;;;;;;;8.25;4.50;;;;;;;-140.66;100.00;55571.53;5071972;28;20049;-76
2023/05/13 02:56:30;;;;;;;10.50;4.32;;;;;;;-140.66;100.00;55571.53;5056492;28;20040;-75
2023/05/13 02:59:16;;;;;;;7.35;4.13;;;;;;;-140.66;100.00;55571.53;5041198;28;20021;-76
2023/05/13 03:02:02;;;;;;;8.00;4.50;;;;;;;-140.66;100.00;55571.53;5054766;28;20453;-76
2023/05/13 03:04:48;;;;;;;5.05;4.10;;;;;;;-140.66;100.00;55571.53;5041037;28;20024;-75
2023/05/13 03:07:34;;;;;;;6.75;4.07;;;;;;;-140.66;100.00;55571.53;5055830;28;20036;-76
2023/05/13 03:10:19;;;;;;;10.13;4.43;;;;;;;-140.66;100.00;55571.53;5073968;28;20093;-76
2023/05/13 03:13:05;;;;;;;7.53;4.10;;;;;;;-140.66;100.00;55571.53;5046129;28;20524;-76
2023/05/13 03:15:51;;;;;;;9.02;5.00;;;;;;;-140.66;100.00;55571.53;5056139;28;20453;-76
2023/05/13 03:18:37;;;;;;;7.28;4.68;;;;;;;-140.66;100.00;55571.53;5039520;28;20068;-75
2023/05/13 03:21:22;;;;;;;8.65;5.30;;;;;;;-140.66;100.00;55571.53;5040901;28;20068;-75
2023/05/13 03:24:08;;;;;;;8.05;4.80;;;;;;;-140.66;100.00;55571.53;5040783;28;20091;-76
2023/05/13 03:26:55;;;;;;;10.07;4.88;;;;;;;-140.66;100.00;55571.53;5055175;28;20068;-76
2023/05/13 03:29:41;;;;;;;8.98;5.10;;;;;;;-140.66;100.00;55571.53;5075589;28;20049;-75
2023/05/13 03:32:29;;;;;;;8.15;4.47;;;;;;;-140.66;100.00;55571.53;5074383;28;20082;-77
2023/05/13 03:35:15;;;;;;;8.05;4.50;;;;;;;-140.66;100.00;55571.53;5074614;28;20566;-76
2023/05/13 03:38:01;;;;;;;7.13;4.43;;;;;;;-140.66;100.00;55571.53;5076161;28;20036;-77
2023/05/13 03:40:47;;;;;;;9.27;5.07;;;;;;;-140.66;100.00;55571.53;5060710;28;20024;-75
2023/05/13 03:43:32;;;;;;;6.57;4.80;;;;;;;-140.66;100.00;55571.53;5075289;28;20032;-75
2023/05/13 03:46:18;;;;;;;9.27;5.28;;;;;;;-140.66;100.00;55571.53;5073746;28;20035;-76
2023/05/13 03:49:04;;;;;;;8.23;4.95;;;;;;;-140.66;100.00;55571.53;5072650;28;20021;-76
2023/05/13 03:51:50;;;;;;;12.02;4.80;;;;;;;-140.66;100.00;55571.53;5073571;28;20118;-75
2023/05/13 03:54:35;;;;;;;8.32;5.00;;;;;;;-140.66;100.00;55571.53;5074631;28;20029;-75
2023/05/13 03:57:21;;;;;;;8.90;5.03;;;;;;;-140.66;100.00;55571.53;5075445;28;20354;-76
2023/05/13 04:00:08;;;;;;;7.88;4.88;;;;;;;-140.66;100.00;55571.53;5073139;28;20128;-75
2023/05/13 04:02:54;;;;;;;6.03;4.30;;;;;;;-140.66;100.00;55571.53;5076152;28;20032;-76
2023/05/13 04:05:40;;;;;;;10.57;5.38;;;;;;;-140.66;100.00;55571.53;5077276;28;20020;-75
2023/05/13 04:08:26;;;;;;;9.68;5.03;;;;;;;-140.66;100.00;55571.53;5078573;28;20365;-76
2023/05/13 04:11:12;;;;;;;7.40;5.07;;;;;;;-140.66;100.00;55571.53;5078298;28;20444;-76
2023/05/13 04:13:57;;;;;;;12.18;5.70;;;;;;;-140.66;100.00;55571.53;5077024;28;20489;-77
2023/05/13 04:16:43;;;;;;;8.57;5.55;;;;;;;-140.66;100.00;55571.53;5078010;28;20029;-76
2023/05/13 04:19:29;;;;;;;7.55;5.35;;;;;;;-140.66;100.00;55571.53;5064043;28;20032;-77
2023/05/13 04:22:15;;;;;;;9.15;5.10;;;;;;;-140.66;100.00;55571.53;5077805;28;20028;-76
2023/05/13 04:25:00;;;;;;;9.68;5.20;;;;;;;-140.66;100.00;55571.53;5076584;28;20467;-76
2023/05/13 04:27:46;;;;;;;11.30;5.43;;;;;;;-140.66;100.00;55571.53;5078393;28;20060;-76
2023/05/13 04:30:32;;;;;;;7.57;5.40;;;;;;;-140.66;100.00;55571.53;5062352;28;20036;-75
2023/05/13 04:33:18;;;;;;;8.82;5.88;;;;;;;-140.66;100.00;55571.53;5077188;28;20067;-76
2023/05/13 04:36:04;;;;;;;8.98;5.70;;;;;;;-140.66;100.00;55571.53;5077293;28;20033;-77
2023/05/13 04:38:49;;;;;;;12.75;5.45;;;;;;;-140.66;100.00;55571.53;5076669;28;20035;-76
2023/05/13 04:41:35;;;;;;;9.55;5.32;;;;;;;-140.66;100.00;55571.53;5076915;28;20415;-75
2023/05/13 04:44:21;;;;;;;8.15;5.10;;;;;;;-140.66;100.00;55571.53;5078070;28;20024;-77
2023/05/13 04:47:07;;;;;;;9.77;5.22;;;;;;;-140.66;100.00;55571.53;5076451;28;20036;-77
2023/05/13 04:49:52;;;;;;;7.95;5.60;;;;;;;-140.66;100.00;55571.53;5076710;28;20035;-76
2023/05/13 04:52:41;;;;;;;11.00;5.95;;;;;;;-140.66;100.00;55571.53;5076090;28;20039;-77
2023/05/13 04:55:27;;;;;;;9.50;5.47;;;;;;;-140.66;100.00;55571.53;5077252;28;20028;-77
2023/05/13 04:58:13;;;;;;;11.55;5.63;;;;;;;-140.66;100.00;55571.53;5078174;28;20029;-76
2023/05/13 05:00:58;;;;;;;9.95;6.15;;;;;;;-140.66;100.00;55571.53;5076655;28;20095;-76
2023/05/13 05:03:44;;;;;;;14.73;6.07;;;;;;;-140.66;100.00;55571.53;5075692;28;20407;-76
2023/05/13 05:06:31;;;;;;;9.70;6.30;;;;;;;-140.66;100.00;55571.53;5076242;28;20020;-77
2023/05/13 05:09:17;;;;;;;9.27;5.45;;;;;;;-140.66;100.00;55571.53;5076621;28;20423;-76
2023/05/13 05:12:03;;;;;;;7.50;5.00;;;;;;;-140.66;100.00;55571.53;5076228;28;20103;-77
2023/05/13 05:14:49;;;;;;;6.38;4.78;;;;;;;-140.66;100.00;55571.53;5074974;28;20087;-77
2023/05/13 05:17:34;;;;;;;14.07;4.90;;;;;;;-140.66;100.00;55571.53;5076764;28;20026;-76
2023/05/13 05:20:20;;;;;;;11.70;5.75;;;;;;;-140.66;100.00;55571.53;5077005;28;20036;-76
2023/05/13 05:23:07;;;;;;;11.07;6.18;;;;;;;-140.66;100.00;55571.53;5081433;28;20020;-76
2023/05/13 05:25:53;;;;;;;12.05;6.90;;;;;;;-140.66;100.00;55571.53;5082636;28;20032;-77
2023/05/13 05:28:41;;;;;;;11.15;6.78;;;;;;;-140.66;100.00;55571.53;5076036;28;20067;-76
2023/05/13 05:31:27;;;;;;;11.32;6.82;;;;;;;-140.66;100.00;55571.53;5076908;28;20029;-76
2023/05/13 05:34:13;;;;;;;12.30;7.28;;;;;;;-140.66;100.00;55571.53;5077235;28;20021;-77
2023/05/13 05:36:58;;;;;;;11.65;7.28;;;;;;;-140.66;100.00;55571.53;5076350;28;20028;-77
2023/05/13 05:39:44;;;;;;;10.77;7.40;;;;;;;-140.66;100.00;55571.53;5079854;28;20090;-76
2023/05/13 05:42:30;;;;;;;12.23;6.43;;;;;;;-140.66;100.00;55571.53;5082955;28;20067;-77
2023/05/13 05:45:16;;;;;;;13.48;7.15;;;;;;;-140.66;100.00;55571.53;5075997;28;20024;-77
2023/05/13 05:48:02;;;;;;;8.90;6.68;;;;;;;-140.66;100.00;55571.53;5076762;28;20047;-77
2023/05/13 05:50:48;;;;;;;10.77;6.95;;;;;;;-140.66;100.00;55571.53;5076134;28;20024;-78
2023/05/13 05:53:36;;;;;;;12.05;6.30;;;;;;;-140.66;100.00;55571.53;5076581;28;20024;-76
2023/05/13 05:56:22;;;;;;;14.40;6.22;;;;;;;-140.66;100.00;55571.53;5075921;28;20039;-77
2023/05/13 05:59:07;;;;;;;10.52;5.82;;;;;;;-140.66;100.00;55571.53;5075600;28;20020;-76
2023/05/13 06:01:53;;;;;;;16.33;5.97;;;;;;;-140.66;100.00;55571.53;5075499;28;20412;-77
2023/05/13 06:04:40;;;;;;;13.70;5.82;;;;;;;-140.66;100.00;55571.53;5073765;28;20059;-77
2023/05/13 06:07:26;;;;;;;7.93;5.03;;;;;;;-140.66;100.00;55571.53;5075940;28;20117;-78
2023/05/13 06:10:12;;;;;;;12.65;5.18;;;;;;;-140.66;100.00;55571.53;5075371;28;20024;-78
2023/05/13 06:12:57;;;;;;;9.27;5.47;;;;;;;-140.66;100.00;55571.53;5076099;28;20345;-78
2023/05/13 06:15:43;;;;;;;9.88;5.35;;;;;;;-140.66;100.00;55571.53;5075365;28;20040;-79
2023/05/13 06:18:29;;;;;;;10.07;5.32;;;;;;;-140.66;100.00;55571.53;5076964;28;20039;-78
2023/05/13 06:21:15;;;;;;;12.25;4.75;;;;;;;-140.66;100.00;55571.53;5075145;28;20483;-76
2023/05/13 06:24:01;;;;;;;7.50;4.78;;;;;;;-140.66;100.00;55571.53;5076406;28;20333;-78
2023/05/13 06:26:47;;;;;;;6.60;4.40;;;;;;;-140.66;100.00;55571.53;5074842;28;20032;-78
2023/05/13 06:29:33;;;;;;;9.85;3.92;;;;;;;-140.66;100.00;55571.53;5075786;28;20061;-77
2023/05/13 06:32:19;;;;;;;10.13;4.28;;;;;;;-140.66;100.00;55571.53;5074504;28;20032;-79
2023/05/13 06:35:05;;;;;;;10.65;4.40;;;;;;;-140.66;100.00;55571.53;5075870;28;20040;-78
2023/05/13 06:37:51;;;;;;;9.63;3.95;;;;;;;-140.66;100.00;55571.53;5075163;28;20115;-77
2023/05/13 06:40:36;;;;;;;8.13;4.57;;;;;;;-140.66;100.00;55571.53;5075707;28;20099;-78
2023/05/13 06:43:22;;;;;;;9.38;4.70;;;;;;;-140.66;100.00;55571.53;5074485;28;20024;-79
2023/05/13 06:46:08;;;;;;;9.27;4.43;;;;;;;-140.66;100.00;55571.53;5075965;28;20044;-78
2023/05/13 06:48:55;;;;;;;10.80;4.40;;;;;;;-140.66;100.00;55571.53;5076075;28;20437;-78
2023/05/13 06:51:41;;;;;;;13.02;4.30;;;;;;;-140.66;100.00;55571.53;5074761;28;20024;-79
2023/05/13 06:54:27;;;;;;;10.15;4.10;;;;;;;-140.66;100.00;55571.53;5074618;28;20411;-78
2023/05/13 06:57:12;;;;;;;11.43;4.10;;;;;;;-140.66;100.00;55571.53;5074339;28;20504;-78
2023/05/13 06:59:59;;;;;;;12.20;4.30;;;;;;;-140.66;100.00;55571.53;5074389;28;20043;-78
2023/05/13 07:02:45;;;;;;;11.65;4.07;;;;;;;-140.66;100.00;55571.53;5060136;28;20025;-78
2023/05/13 07:05:32;;;;;;;7.72;3.67;;;;;;;-140.66;100.00;55571.53;5073965;28;20040;-79
2023/05/13 07:08:18;;;;;;;8.73;3.70;;;;;;;-140.66;100.00;55571.53;5075366;28;20029;-78
2023/05/13 07:11:03;;;;;;;8.93;3.75;;;;;;;-140.66;100.00;55571.53;5074359;28;20079;-78
2023/05/13 07:13:49;;;;;;;8.63;3.72;;;;;;;-140.66;100.00;55571.53;5074985;28;20036;-78
2023/05/13 07:16:35;;;;;;;5.45;2.90;;;;;;;-140.66;100.00;55571.53;5073972;28;20461;-78
2023/05/13 07:19:21;;;;;;;4.13;2.90;;;;;;;-140.66;100.00;55571.53;5075104;28;20416;-78
2023/05/13 07:22:06;;;;;;;5.72;2.53;;;;;;;-140.66;100.00;55571.53;5076018;28;20017;-77
2023/05/13 07:24:52;;;;;;;3.30;1.90;;;;;;;-140.66;100.00;55571.53;5076120;28;20025;-78
2023/05/13 07:27:38;;;;;;;10.10;3.00;;;;;;;-140.66;100.00;55571.53;5074558;28;20108;-77
2023/05/13 07:30:24;;;;;;;5.50;2.15;;;;;;;-140.66;100.00;55571.53;5074510;28;20437;-77
2023/05/13 07:33:10;;;;;;;5.10;2.10;;;;;;;-140.66;100.00;55571.53;5074872;28;20039;-77
2023/05/13 07:35:56;;;;;;;4.45;1.95;;;;;;;-140.66;100.00;55571.53;5074738;28;20445;-80
2023/05/13 07:38:43;;;;;;;4.35;2.50;;;;;;;-140.66;100.00;55571.53;5078262;28;20040;-78
2023/05/13 07:41:28;;;;;;;3.47;1.83;;;;;;;-140.66;100.00;55571.53;5078263;28;20028;-78
2023/05/13 07:44:14;;;;;;;3.97;2.20;;;;;;;-140.66;100.00;55571.53;5079103;28;20024;-78
2023/05/13 07:47:00;;;;;;;3.80;2.10;;;;;;;-140.66;100.00;55571.53;5077075;28;20059;-78
2023/05/13 07:49:46;;;;;;;2.88;2.08;;;;;;;-140.66;100.00;55571.53;5079126;28;20360;-78
2023/05/13 07:52:32;;;;;;;5.28;2.30;;;;;;;-140.66;100.00;55571.53;5077868;28;20021;-79
2023/05/13 07:55:17;;;;;;;5.13;2.08;;;;;;;-140.66;100.00;55571.53;5077642;28;20039;-80
2023/05/13 07:58:03;;;;;;;9.90;2.22;;;;;;;-140.66;100.00;55571.53;5098352;28;20039;-79
2023/05/13 08:00:49;;;;;;;7.03;2.30;;;;;;;-140.66;100.00;55571.53;5079343;28;20020;-79
2023/05/13 08:03:35;;;;;;;7.80;2.30;;;;;;;-140.66;100.00;55571.53;5106397;27;20036;-79
2023/05/13 08:06:20;;;;;;;7.45;2.60;;;;;;;-140.66;100.00;55571.53;5079102;28;20036;-78
2023/05/13 08:09:08;;;;;;;5.22;2.10;;;;;;;-140.66;100.00;55571.53;5078714;28;20032;-80
2023/05/13 08:11:54;;;;;;;3.35;2.28;;;;;;;-140.66;100.00;55571.53;5077572;28;20055;-78
2023/05/13 08:14:40;;;;;;;5.82;2.22;;;;;;;-140.66;100.00;55571.53;5078497;28;20405;-79
2023/05/13 08:17:25;;;;;;;5.97;2.10;;;;;;;-140.66;100.00;55571.53;5093260;28;20024;-79
2023/05/13 08:20:11;;;;;;;3.22;2.10;;;;;;;-140.66;100.00;55571.53;5079483;28;20032;-78
2023/05/13 08:22:57;;;;;;;4.20;2.28;;;;;;;-140.66;100.00;55571.53;5078152;28;20034;-78
2023/05/13 08:25:43;;;;;;;8.80;2.30;;;;;;;-140.66;100.00;55571.53;5077258;28;20123;-79
2023/05/13 08:28:28;;;;;;;3.28;1.95;;;;;;;-140.66;100.00;55571.53;5077525;28;20044;-78
2023/05/13 08:31:14;;;;;;;4.70;2.28;;;;;;;-140.66;100.00;55571.53;5078870;28;20027;-78
2023/05/13 08:34:00;;;;;;;5.40;2.10;;;;;;;-140.66;100.00;55571.53;5078187;28;20024;-77
2023/05/13 08:36:46;;;;;;;6.97;2.25;;;;;;;-140.66;100.00;55571.53;5076541;28;20028;-78
2023/05/13 08:39:32;;;;;;;6.90;2.70;;;;;;;-140.66;100.00;55571.53;5077937;28;20028;-78
2023/05/13 08:42:20;;;;;;;6.47;3.17;;;;;;;-140.66;100.00;55571.53;5076471;28;20020;-78
2023/05/13 08:45:07;;;;;;;4.00;2.00;;;;;;;-140.66;100.00;55571.53;5103599;28;20111;-79
2023/05/13 08:47:56;;;;;;;7.78;2.30;;;;;;;-140.66;100.00;55571.53;5077384;28;20033;-78
2023/05/13 08:50:43;;;;;;;4.13;2.08;;;;;;;-140.66;100.00;55571.53;5075779;28;20021;-78
2023/05/13 08:53:30;;;;;;;6.82;2.50;;;;;;;-140.66;100.00;55571.53;5078469;28;20094;-78
2023/05/13 08:56:16;;;;;;;6.93;2.65;;;;;;;-140.66;100.00;55571.53;5076353;28;20086;-78
2023/05/13 08:59:01;;;;;;;7.72;2.30;;;;;;;-140.66;100.00;55571.53;5077679;28;20028;-78
2023/05/13 09:01:49;;;;;;;2.88;2.00;;;;;;;-140.66;100.00;55571.53;5077253;28;20107;-78
2023/05/13 09:04:38;;;;;;;5.43;2.20;;;;;;;-140.66;100.00;55571.53;5076077;28;20028;-78
2023/05/13 09:07:23;;;;;;;5.78;2.30;;;;;;;-140.66;100.00;55571.53;5063487;28;20032;-78
2023/05/13 09:10:09;;;;;;;4.28;1.70;;;;;;;-140.66;100.00;55571.53;5085466;28;20039;-77
2023/05/13 09:12:56;;;;;;;7.22;2.33;;;;;;;-140.66;100.00;55571.53;5089493;28;20068;-76
2023/05/13 09:15:42;;;;;;;3.33;2.17;;;;;;;-140.66;100.00;55571.53;5088445;28;20033;-78
2023/05/13 09:18:31;;;;;;;4.53;2.10;;;;;;;-140.66;100.00;55571.53;5080236;28;20110;-78
2023/05/13 09:21:27;;;;;;;5.65;2.53;;;;;;;-140.66;100.00;55571.53;5076773;28;20042;-78
2023/05/13 09:24:19;;;;;;;4.30;2.10;;;;;;;-140.66;100.00;55571.53;5076676;28;20317;-78
2023/05/13 09:27:05;;;;;;;3.85;1.83;;;;;;;-140.66;100.00;55571.53;5061458;28;20452;-78
2023/05/13 09:30:00;;;;;;;6.38;2.20;;;;;;;-140.66;100.00;55571.53;5090681;28;20079;-78
2023/05/13 09:33:18;;;;;;;3.17;2.00;;;;;;;-140.66;100.00;55571.53;5079240;28;20419;-77
2023/05/13 09:36:05;;;;;;;3.80;1.83;;;;;;;-140.66;100.00;55571.53;5076566;28;20028;-78
2023/05/13 09:38:52;;;;;;;4.65;2.15;;;;;;;-140.66;100.00;55571.53;5077695;28;20200;-79
2023/05/13 09:41:38;;;;;;;3.45;2.20;;;;;;;-140.66;100.00;55571.53;5061729;28;20055;-79
2023/05/13 09:44:23;;;;;;;3.65;1.90;;;;;;;-140.66;100.00;55571.53;5074905;28;20063;-77
2023/05/13 09:47:13;;;;;;;2.63;1.80;;;;;;;-140.66;100.00;55571.53;5075671;28;20021;-79
2023/05/13 09:50:01;;;;;;;6.25;1.73;;;;;;;-140.66;100.00;55571.53;5075776;28;20035;-79
2023/05/13 09:52:50;;;;;;;4.00;2.13;;;;;;;-140.66;100.00;55571.53;5078646;28;20032;-79
2023/05/13 09:55:36;;;;;;;5.00;1.90;;;;;;;-140.66;100.00;55571.53;5075611;28;20093;-78
2023/05/13 09:58:23;;;;;;;4.68;2.30;;;;;;;-140.66;100.00;55571.53;5076842;28;20060;-78
2023/05/13 10:01:09;;;;;;;5.88;2.67;;;;;;;-140.66;100.00;55571.53;5073636;28;20083;-78
2023/05/13 10:03:58;;;;;;;5.90;2.17;;;;;;;-140.66;100.00;55571.53;5074833;28;20032;-79
2023/05/13 10:06:46;;;;;;;3.47;2.00;;;;;;;-140.66;100.00;55571.53;5075790;28;20107;-78
2023/05/13 10:09:36;;;;;;;3.63;2.10;;;;;;;-140.66;100.00;55571.53;5075358;28;20054;-78
2023/05/13 10:12:24;;;;;;;4.82;2.10;;;;;;;-140.66;100.00;55571.53;5075826;28;20059;-78
2023/05/13 10:15:11;;;;;;;4.45;2.38;;;;;;;-140.66;100.00;55571.53;5068434;28;20028;-78
2023/05/13 10:17:58;;;;;;;3.28;2.03;;;;;;;-140.66;100.00;55571.53;5081638;28;20020;-78
2023/05/13 10:20:45;;;;;;;5.90;2.13;;;;;;;-140.66;100.00;55571.53;5094893;28;20036;-77
2023/05/13 10:23:32;;;;;;;6.57;2.00;;;;;;;-140.66;100.00;55571.53;5095840;28;20061;-78
2023/05/13 10:26:22;;;;;;;3.78;2.15;;;;;;;-140.66;100.00;55571.53;5096268;28;20027;-78
2023/05/13 10:29:09;;;;;;;3.80;1.88;;;;;;;-140.66;100.00;55571.53;5095250;28;20063;-77
2023/05/13 10:31:57;;;;;;;4.88;2.05;;;;;;;-140.66;100.00;55571.53;5095988;28;20035;-77
2023/05/13 10:34:45;;;;;;;6.38;1.98;;;;;;;-140.66;100.00;55571.53;5097450;28;20034;-78
2023/05/13 10:37:45;;;;;;;6.38;2.00;;;;;;;-140.66;100.00;55571.53;5108420;28;20099;-77
2023/05/13 10:41:19;;;;;;;5.97;2.15;;;;;;;-140.66;100.00;55571.53;5095369;28;20028;-78
2023/05/13 10:44:06;;;;;;;11.50;2.50;;;;;;;-140.66;100.00;55571.53;5036264;28;20105;-79
2023/05/13 10:46:54;;;;;;;3.13;1.95;;;;;;;-140.66;100.00;55571.53;5094995;28;20028;-79
2023/05/13 10:49:49;;;;;;;4.47;2.15;;;;;;;-140.66;100.00;55571.53;5108962;28;20027;-80
2023/05/13 10:52:47;;;;;;;2.88;2.05;;;;;;;-140.66;100.00;55571.53;5095849;28;20024;-78
2023/05/13 10:55:40;;;;;;;4.57;2.10;;;;;;;-140.66;100.00;55571.53;5116525;28;20024;-78
2023/05/13 10:58:38;;;;;;;4.93;2.53;;;;;;;-140.66;100.00;55571.53;5099799;28;20032;-79
2023/05/13 11:01:28;;;;;;;4.03;2.00;;;;;;;-140.66;100.00;55571.53;5096292;28;20104;-78
2023/05/13 11:04:16;;;;;;;3.97;2.05;;;;;;;-140.66;100.00;55571.53;5095588;28;20109;-79
2023/05/13 11:07:15;;;;;;;6.40;2.13;;;;;;;-140.66;100.00;55571.53;5080435;28;20057;-78
2023/05/13 11:10:01;;;;;;;4.15;2.55;;;;;;;-140.66;100.00;55571.53;5113957;28;20070;-79
2023/05/13 11:13:07;;;;;;;5.22;2.40;;;;;;;-140.66;100.00;55571.53;5108999;28;20052;-79
2023/05/13 11:15:54;;;;;;;9.85;2.42;;;;;;;-140.66;100.00;55571.53;5100827;28;20463;-80
2023/05/13 11:18:40;;;;;;;3.42;2.05;;;;;;;-140.66;100.00;55571.53;5093907;28;20028;-78
2023/05/13 11:21:31;;;;;;;6.50;2.38;;;;;;;-140.66;100.00;55571.53;5096680;28;20032;-79
2023/05/13 11:24:18;;;;;;;7.30;2.45;;;;;;;-140.66;100.00;55571.53;5082905;28;20153;-78
2023/05/13 11:27:17;;;;;;;15.10;3.00;;;;;;;-140.66;100.00;55571.53;5096529;28;20020;-79
2023/05/13 11:30:24;;;;;;;3.45;2.10;;;;;;;-140.66;100.00;55571.53;5087205;28;20037;-79
2023/05/13 11:33:11;;;;;;;5.93;2.00;;;;;;;-140.66;100.00;55571.53;5117749;28;20069;-79
2023/05/13 11:35:57;;;;;;;5.35;2.20;;;;;;;-140.66;100.00;55571.53;5117969;28;20023;-79
2023/05/13 11:38:43;;;;;;;2.38;2.00;;;;;;;-140.66;100.00;55571.53;5116358;28;20024;-78
2023/05/13 11:41:31;;;;;;;2.65;1.92;;;;;;;-140.66;100.00;55571.53;5117201;28;20110;-78
2023/05/13 11:44:18;;;;;;;3.92;2.28;;;;;;;-140.66;100.00;55571.53;5098521;28;20092;-78
2023/05/13 11:47:06;;;;;;;2.70;2.03;;;;;;;-140.66;100.00;55571.53;5102453;28;20549;-80
2023/05/13 11:49:52;;;;;;;4.55;2.50;;;;;;;-140.66;100.00;55571.53;5102550;28;20042;-79
2023/05/13 11:52:38;;;;;;;7.07;2.30;;;;;;;-140.66;100.00;55571.53;5116451;28;20106;-79
2023/05/13 11:55:29;;;;;;;4.10;2.13;;;;;;;-140.66;100.00;55571.53;5102287;28;20031;-78
2023/05/13 11:58:15;;;;;;;4.18;2.00;;;;;;;-140.66;100.00;55571.53;5116672;28;20050;-79
2023/05/13 12:01:01;;;;;;;3.22;2.28;;;;;;;-140.66;100.00;55571.53;5116730;28;20027;-78
2023/05/13 12:03:47;;;;;;;3.58;2.17;;;;;;;-140.66;100.00;55571.53;5117287;28;20043;-78
2023/05/13 12:06:34;;;;;;;8.50;2.50;;;;;;;-140.66;100.00;55571.53;5117666;28;20475;-79
2023/05/13 12:09:22;;;;;;;2.65;2.17;;;;;;;-140.66;100.00;55571.53;5117016;28;20104;-77
2023/05/13 12:12:08;;;;;;;5.28;2.10;;;;;;;-140.66;100.00;55571.53;5102132;28;20086;-79
2023/05/13 12:15:06;;;;;;;3.50;2.42;;;;;;;-140.66;100.00;55571.53;5116994;28;20141;-79
2023/05/13 12:17:53;;;;;;;8.48;2.83;;;;;;;-140.66;100.00;55571.53;5102582;28;20440;-78
2023/05/13 12:20:39;;;;;;;9.82;2.70;;;;;;;-140.66;100.00;55571.53;5117256;28;20507;-79
2023/05/13 12:23:25;;;;;;;7.00;2.10;;;;;;;-140.66;100.00;55571.53;5101514;28;20114;-78
2023/05/13 12:26:10;;;;;;;4.40;2.10;;;;;;;-140.66;100.00;55571.53;5116785;28;20054;-79
2023/05/13 12:28:58;;;;;;;4.63;2.30;;;;;;;-140.66;100.00;55571.53;5116401;28;20063;-78
2023/05/13 12:32:02;;;;;;;7.30;2.80;;;;;;;-140.66;100.00;55571.53;5117249;28;20443;-79
2023/05/13 12:34:49;;;;;;;6.38;2.65;;;;;;;-140.66;100.00;55571.53;5116605;28;20032;-79
2023/05/13 12:37:35;;;;;;;3.47;2.58;;;;;;;-140.66;100.00;55571.53;5102243;28;20088;-79